sensor_id;sensor_type;location;lat;lon;timestamp;pressure;altitude;pressure_sealevel;temperature;humidity
10064;BME280;5071;52.360;13.134;2023-03-02T00:02:27;102132.81;;;-3.92;89.63
10064;BME280;5071;52.360;13.134;2023-03-02T00:07:32;102124.41;;;-4.01;88.76
10064;BME280;5071;52.360;13.134;2023-03-02T00:12:35;102125.94;;;-3.91;89.49
10064;BME280;5071;52.360;13.134;2023-03-02T00:17:46;102132.00;;;-3.91;89.50
10064;BME280;5071;52.360;13.134;2023-03-02T00:22:48;102142.22;;;-4.05;88.66
10064;BME280;5071;52.360;13.134;2023-03-02T00:27:50;102126.94;;;-4.14;89.25
10064;BME280;5071;52.360;13.134;2023-03-02T00:32:54;102124.66;;;-4.10;89.92
10064;BME280;5071;52.360;13.134;2023-03-02T00:37:57;102125.34;;;-4.12;89.88
10064;BME280;5071;52.360;13.134;2023-03-02T00:42:59;102120.22;;;-4.24;90.10
10064;BME280;5071;52.360;13.134;2023-03-02T00:48:03;102128.78;;;-4.25;90.76
10064;BME280;5071;52.360;13.134;2023-03-02T00:53:05;102130.25;;;-4.28;90.62
10064;BME280;5071;52.360;13.134;2023-03-02T00:58:07;102136.91;;;-4.32;90.81
10064;BME280;5071;52.360;13.134;2023-03-02T01:03:11;102134.66;;;-4.27;91.71
10064;BME280;5071;52.360;13.134;2023-03-02T01:08:13;102133.38;;;-4.46;90.62
10064;BME280;5071;52.360;13.134;2023-03-02T01:13:16;102126.19;;;-4.25;92.71
10064;BME280;5071;52.360;13.134;2023-03-02T01:18:19;102128.59;;;-4.40;91.40
10064;BME280;5071;52.360;13.134;2023-03-02T01:23:21;102124.75;;;-4.33;92.68
10064;BME280;5071;52.360;13.134;2023-03-02T01:28:23;102124.06;;;-4.31;91.42
10064;BME280;5071;52.360;13.134;2023-03-02T01:33:27;102120.25;;;-4.36;91.30
10064;BME280;5071;52.360;13.134;2023-03-02T01:38:28;102118.88;;;-4.31;91.91
10064;BME280;5071;52.360;13.134;2023-03-02T01:43:31;102108.56;;;-4.42;91.54
10064;BME280;5071;52.360;13.134;2023-03-02T01:48:40;102111.28;;;-4.41;92.11
10064;BME280;5071;52.360;13.134;2023-03-02T01:53:44;102098.69;;;-4.48;92.52
10064;BME280;5071;52.360;13.134;2023-03-02T01:58:49;102096.66;;;-4.52;92.64
10064;BME280;5071;52.360;13.134;2023-03-02T02:03:54;102092.13;;;-4.43;93.12
10064;BME280;5071;52.360;13.134;2023-03-02T02:08:57;102091.53;;;-4.39;93.85
10064;BME280;5071;52.360;13.134;2023-03-02T02:14:02;102088.50;;;-4.45;92.76
10064;BME280;5071;52.360;13.134;2023-03-02T02:19:11;102091.91;;;-4.46;93.98
10064;BME280;5071;52.360;13.134;2023-03-02T02:24:20;102078.88;;;-4.59;92.89
10064;BME280;5071;52.360;13.134;2023-03-02T02:29:30;102079.47;;;-4.75;93.44
10064;BME280;5071;52.360;13.134;2023-03-02T02:34:37;102081.41;;;-4.73;93.32
10064;BME280;5071;52.360;13.134;2023-03-02T02:39:44;102084.06;;;-4.71;93.52
10064;BME280;5071;52.360;13.134;2023-03-02T02:44:55;102082.31;;;-4.84;93.84
10064;BME280;5071;52.360;13.134;2023-03-02T02:49:58;102077.50;;;-4.91;94.20
10064;BME280;5071;52.360;13.134;2023-03-02T02:55:00;102071.31;;;-5.05;94.12
10064;BME280;5071;52.360;13.134;2023-03-02T03:00:06;102081.34;;;-5.10;93.80
10064;BME280;5071;52.360;13.134;2023-03-02T03:05:12;102073.25;;;-5.02;94.72
10064;BME280;5071;52.360;13.134;2023-03-02T03:10:18;102070.16;;;-4.85;95.74
10064;BME280;5071;52.360;13.134;2023-03-02T03:15:25;102068.25;;;-4.88;95.03
10064;BME280;5071;52.360;13.134;2023-03-02T03:20:27;102052.09;;;-5.09;94.67
10064;BME280;5071;52.360;13.134;2023-03-02T03:25:30;102058.75;;;-5.12;94.84
10064;BME280;5071;52.360;13.134;2023-03-02T03:30:33;102060.88;;;-5.06;95.29
10064;BME280;5071;52.360;13.134;2023-03-02T03:35:35;102065.47;;;-5.02;95.52
10064;BME280;5071;52.360;13.134;2023-03-02T03:40:38;102052.41;;;-5.04;95.61
10064;BME280;5071;52.360;13.134;2023-03-02T03:45:41;102060.06;;;-5.05;95.55
10064;BME280;5071;52.360;13.134;2023-03-02T03:50:43;102049.69;;;-5.05;95.78
10064;BME280;5071;52.360;13.134;2023-03-02T03:55:45;102057.63;;;-5.16;95.90
10064;BME280;5071;52.360;13.134;2023-03-02T04:00:49;102064.47;;;-5.28;95.99
10064;BME280;5071;52.360;13.134;2023-03-02T04:05:54;102074.72;;;-5.18;96.06
10064;BME280;5071;52.360;13.134;2023-03-02T04:10:56;102072.13;;;-5.18;96.41
10064;BME280;5071;52.360;13.134;2023-03-02T04:16:00;102062.31;;;-5.22;95.79
10064;BME280;5071;52.360;13.134;2023-03-02T04:21:02;102064.47;;;-5.40;95.98
10064;BME280;5071;52.360;13.134;2023-03-02T04:26:05;102051.88;;;-5.35;96.24
10064;BME280;5071;52.360;13.134;2023-03-02T04:31:08;102048.84;;;-5.41;95.76
10064;BME280;5071;52.360;13.134;2023-03-02T04:36:11;102051.56;;;-5.40;96.60
10064;BME280;5071;52.360;13.134;2023-03-02T04:41:15;102055.59;;;-5.43;96.22
10064;BME280;5071;52.360;13.134;2023-03-02T04:46:21;102058.75;;;-5.48;96.05
10064;BME280;5071;52.360;13.134;2023-03-02T04:51:25;102063.25;;;-5.57;96.39
10064;BME280;5071;52.360;13.134;2023-03-02T04:56:28;102060.09;;;-5.53;96.78
10064;BME280;5071;52.360;13.134;2023-03-02T05:01:32;102055.84;;;-5.40;96.45
10064;BME280;5071;52.360;13.134;2023-03-02T05:06:35;102055.59;;;-5.32;96.62
10064;BME280;5071;52.360;13.134;2023-03-02T05:11:37;102046.94;;;-5.44;96.62
10064;BME280;5071;52.360;13.134;2023-03-02T05:16:41;102060.53;;;-5.23;96.91
10064;BME280;5071;52.360;13.134;2023-03-02T05:21:43;102051.28;;;-5.31;95.95
10064;BME280;5071;52.360;13.134;2023-03-02T05:26:46;102044.81;;;-5.50;95.79
10064;BME280;5071;52.360;13.134;2023-03-02T05:31:50;102058.50;;;-5.51;95.95
10064;BME280;5071;52.360;13.134;2023-03-02T05:36:52;102061.91;;;-5.40;96.51
10064;BME280;5071;52.360;13.134;2023-03-02T05:41:54;102064.47;;;-5.28;95.98
10064;BME280;5071;52.360;13.134;2023-03-02T05:46:57;102058.28;;;-5.30;95.42
10064;BME280;5071;52.360;13.134;2023-03-02T05:52:03;102060.56;;;-5.35;95.45
10064;BME280;5071;52.360;13.134;2023-03-02T05:57:05;102061.31;;;-5.24;96.40
10064;BME280;5071;52.360;13.134;2023-03-02T06:02:08;102056.16;;;-5.12;95.68
10064;BME280;5071;52.360;13.134;2023-03-02T06:07:11;102056.47;;;-5.08;95.66
10064;BME280;5071;52.360;13.134;2023-03-02T06:12:13;102059.72;;;-4.98;97.37
10064;BME280;5071;52.360;13.134;2023-03-02T06:17:17;102058.91;;;-4.85;97.06
10064;BME280;5071;52.360;13.134;2023-03-02T06:22:19;102067.75;;;-4.70;97.13
10064;BME280;5071;52.360;13.134;2023-03-02T06:27:21;102068.19;;;-4.64;96.14
10064;BME280;5071;52.360;13.134;2023-03-02T06:32:27;102063.88;;;-4.52;96.08
10064;BME280;5071;52.360;13.134;2023-03-02T06:37:30;102071.19;;;-4.46;96.03
10064;BME280;5071;52.360;13.134;2023-03-02T06:42:33;102077.78;;;-4.38;96.30
10064;BME280;5071;52.360;13.134;2023-03-02T06:47:36;102073.94;;;-4.31;96.17
10064;BME280;5071;52.360;13.134;2023-03-02T06:52:39;102083.28;;;-4.08;96.32
10064;BME280;5071;52.360;13.134;2023-03-02T06:57:41;102083.53;;;-3.92;96.11
10064;BME280;5071;52.360;13.134;2023-03-02T07:02:47;102087.38;;;-3.73;95.89
10064;BME280;5071;52.360;13.134;2023-03-02T07:07:49;102089.13;;;-3.47;96.04
10064;BME280;5071;52.360;13.134;2023-03-02T07:13:00;102081.72;;;-3.27;95.53
10064;BME280;5071;52.360;13.134;2023-03-02T07:18:04;102084.63;;;-2.96;96.08
10064;BME280;5071;52.360;13.134;2023-03-02T07:23:06;102087.88;;;-2.30;97.29
10064;BME280;5071;52.360;13.134;2023-03-02T07:28:08;102080.53;;;-1.65;98.14
10064;BME280;5071;52.360;13.134;2023-03-02T07:33:11;102078.34;;;-1.27;98.78
10064;BME280;5071;52.360;13.134;2023-03-02T07:38:13;102074.81;;;-0.82;97.63
10064;BME280;5071;52.360;13.134;2023-03-02T07:43:16;102073.50;;;-0.73;97.24
10064;BME280;5071;52.360;13.134;2023-03-02T07:48:19;102066.22;;;-0.48;96.31
10064;BME280;5071;52.360;13.134;2023-03-02T07:53:21;102072.44;;;-0.29;95.92
10064;BME280;5071;52.360;13.134;2023-03-02T07:58:23;102072.97;;;-0.02;95.39
10064;BME280;5071;52.360;13.134;2023-03-02T08:03:29;102057.38;;;0.16;94.42
10064;BME280;5071;52.360;13.134;2023-03-02T08:08:31;102070.22;;;0.46;93.22
10064;BME280;5071;52.360;13.134;2023-03-02T08:13:33;102056.09;;;0.60;93.06
10064;BME280;5071;52.360;13.134;2023-03-02T08:18:37;102057.91;;;0.79;92.32
10064;BME280;5071;52.360;13.134;2023-03-02T08:23:40;102047.44;;;0.97;91.35
10064;BME280;5071;52.360;13.134;2023-03-02T08:28:42;102059.22;;;1.07;90.47
10064;BME280;5071;52.360;13.134;2023-03-02T08:33:48;102066.38;;;1.29;89.59
10064;BME280;5071;52.360;13.134;2023-03-02T08:38:50;102065.06;;;1.39;88.45
10064;BME280;5071;52.360;13.134;2023-03-02T08:43:52;102059.09;;;1.41;87.73
10064;BME280;5071;52.360;13.134;2023-03-02T08:48:56;102063.31;;;1.20;87.98
10064;BME280;5071;52.360;13.134;2023-03-02T08:54:00;102060.44;;;1.13;88.29
10064;BME280;5071;52.360;13.134;2023-03-02T08:59:06;102049.97;;;1.13;88.37
10064;BME280;5071;52.360;13.134;2023-03-02T09:04:10;102047.94;;;1.45;87.81
10064;BME280;5071;52.360;13.134;2023-03-02T09:09:13;102039.13;;;1.63;87.07
10064;BME280;5071;52.360;13.134;2023-03-02T09:14:15;102044.78;;;1.72;86.17
10064;BME280;5071;52.360;13.134;2023-03-02T09:19:19;102039.00;;;1.79;86.27
10064;BME280;5071;52.360;13.134;2023-03-02T09:24:21;102031.09;;;2.18;84.84
10064;BME280;5071;52.360;13.134;2023-03-02T09:29:23;102017.22;;;2.42;83.48
10064;BME280;5071;52.360;13.134;2023-03-02T09:34:26;102026.63;;;2.58;83.22
10064;BME280;5071;52.360;13.134;2023-03-02T09:39:28;102016.59;;;2.68;82.06
10064;BME280;5071;52.360;13.134;2023-03-02T09:44:41;102014.31;;;3.00;80.25
10064;BME280;5071;52.360;13.134;2023-03-02T09:49:54;102024.13;;;3.27;80.17
10064;BME280;5071;52.360;13.134;2023-03-02T09:55:00;102027.81;;;3.56;78.39
10064;BME280;5071;52.360;13.134;2023-03-02T10:00:14;102013.88;;;3.81;77.95
10064;BME280;5071;52.360;13.134;2023-03-02T10:05:25;102022.00;;;4.13;77.08
10064;BME280;5071;52.360;13.134;2023-03-02T10:10:34;102019.56;;;4.45;75.64
10064;BME280;5071;52.360;13.134;2023-03-02T10:15:42;102014.38;;;9.45;59.53
10064;BME280;5071;52.360;13.134;2023-03-02T10:20:51;102010.13;;;10.39;53.60
10064;BME280;5071;52.360;13.134;2023-03-02T10:26:05;102016.44;;;12.48;47.80
10064;BME280;5071;52.360;13.134;2023-03-02T10:31:17;102017.00;;;13.84;44.34
10064;BME280;5071;52.360;13.134;2023-03-02T10:36:26;102019.00;;;13.20;44.67
10064;BME280;5071;52.360;13.134;2023-03-02T10:41:32;102018.81;;;13.74;42.46
10064;BME280;5071;52.360;13.134;2023-03-02T10:46:40;102012.88;;;12.49;46.37
10064;BME280;5071;52.360;13.134;2023-03-02T10:51:44;102003.09;;;12.43;45.66
10064;BME280;5071;52.360;13.134;2023-03-02T10:56:57;102006.63;;;12.52;46.20
10064;BME280;5071;52.360;13.134;2023-03-02T11:02:02;102001.56;;;14.29;42.51
10064;BME280;5071;52.360;13.134;2023-03-02T11:07:15;102000.16;;;13.76;42.49
10064;BME280;5071;52.360;13.134;2023-03-02T11:12:17;102000.84;;;14.06;42.42
10064;BME280;5071;52.360;13.134;2023-03-02T11:17:29;101985.19;;;13.44;43.75
10064;BME280;5071;52.360;13.134;2023-03-02T11:22:37;101999.88;;;14.16;41.99
10064;BME280;5071;52.360;13.134;2023-03-02T11:27:41;101995.13;;;12.45;45.01
10064;BME280;5071;52.360;13.134;2023-03-02T11:32:51;101998.97;;;10.81;49.62
10064;BME280;5071;52.360;13.134;2023-03-02T11:38:03;101989.38;;;8.11;57.78
10064;BME280;5071;52.360;13.134;2023-03-02T11:43:11;101986.06;;;6.91;62.14
10064;BME280;5071;52.360;13.134;2023-03-02T11:48:17;101990.09;;;6.40;64.88
10064;BME280;5071;52.360;13.134;2023-03-02T11:53:29;101965.63;;;6.09;67.17
10064;BME280;5071;52.360;13.134;2023-03-02T11:58:34;101975.75;;;6.27;67.08
10064;BME280;5071;52.360;13.134;2023-03-02T12:03:39;101965.94;;;6.23;66.89
10064;BME280;5071;52.360;13.134;2023-03-02T12:08:44;101959.16;;;6.31;66.12
10064;BME280;5071;52.360;13.134;2023-03-02T12:13:58;101959.88;;;6.62;65.49
10064;BME280;5071;52.360;13.134;2023-03-02T12:19:13;101958.06;;;6.59;65.46
10064;BME280;5071;52.360;13.134;2023-03-02T12:24:28;101945.81;;;6.61;64.90
10064;BME280;5071;52.360;13.134;2023-03-02T12:29:38;101935.50;;;6.36;66.35
10064;BME280;5071;52.360;13.134;2023-03-02T12:34:42;101923.25;;;6.38;65.91
10064;BME280;5071;52.360;13.134;2023-03-02T12:40:09;101901.63;;;6.53;65.48
10064;BME280;5071;52.360;13.134;2023-03-02T12:45:26;101916.13;;;6.34;66.90
10064;BME280;5071;52.360;13.134;2023-03-02T12:50:36;101904.72;;;7.14;64.23
10064;BME280;5071;52.360;13.134;2023-03-02T12:55:40;101903.88;;;6.75;65.73
10064;BME280;5071;52.360;13.134;2023-03-02T13:00:50;101903.03;;;7.17;64.52
10064;BME280;5071;52.360;13.134;2023-03-02T13:05:59;101888.50;;;7.39;64.02
10064;BME280;5071;52.360;13.134;2023-03-02T13:11:06;101880.66;;;7.44;63.35
10064;BME280;5071;52.360;13.134;2023-03-02T13:16:19;101875.03;;;6.83;65.02
10064;BME280;5071;52.360;13.134;2023-03-02T13:21:28;101875.53;;;6.65;65.93
10064;BME280;5071;52.360;13.134;2023-03-02T13:26:34;101882.78;;;6.75;65.67
10064;BME280;5071;52.360;13.134;2023-03-02T13:31:36;101875.78;;;6.76;65.74
10064;BME280;5071;52.360;13.134;2023-03-02T13:36:40;101885.31;;;6.31;66.83
10064;BME280;5071;52.360;13.134;2023-03-02T13:41:52;101889.09;;;6.42;67.48
10064;BME280;5071;52.360;13.134;2023-03-02T13:46:55;101877.13;;;6.57;66.84
10064;BME280;5071;52.360;13.134;2023-03-02T13:52:00;101863.44;;;6.35;67.73
10064;BME280;5071;52.360;13.134;2023-03-02T13:57:05;101854.25;;;6.18;67.99
10064;BME280;5071;52.360;13.134;2023-03-02T14:02:20;101848.44;;;6.34;68.40
10064;BME280;5071;52.360;13.134;2023-03-02T14:07:23;101842.28;;;6.34;67.21
10064;BME280;5071;52.360;13.134;2023-03-02T14:12:29;101831.97;;;6.05;68.45
10064;BME280;5071;52.360;13.134;2023-03-02T14:17:31;101838.78;;;6.33;67.57
10064;BME280;5071;52.360;13.134;2023-03-02T14:22:34;101835.44;;;6.04;68.13
10064;BME280;5071;52.360;13.134;2023-03-02T14:27:38;101834.00;;;6.17;67.94
10064;BME280;5071;52.360;13.134;2023-03-02T14:32:40;101824.56;;;5.90;68.75
10064;BME280;5071;52.360;13.134;2023-03-02T14:37:46;101815.03;;;5.60;69.59
10064;BME280;5071;52.360;13.134;2023-03-02T14:42:50;101811.56;;;5.96;69.20
10064;BME280;5071;52.360;13.134;2023-03-02T14:47:52;101809.63;;;5.54;70.40
10064;BME280;5071;52.360;13.134;2023-03-02T14:52:56;101807.00;;;5.21;72.30
10064;BME280;5071;52.360;13.134;2023-03-02T14:58:03;101804.47;;;4.92;73.12
10064;BME280;5071;52.360;13.134;2023-03-02T15:03:05;101804.72;;;4.70;74.03
10064;BME280;5071;52.360;13.134;2023-03-02T15:08:11;101806.75;;;4.50;75.31
10064;BME280;5071;52.360;13.134;2023-03-02T15:13:15;101812.31;;;4.30;75.63
10064;BME280;5071;52.360;13.134;2023-03-02T15:18:17;101812.31;;;4.03;77.11
10064;BME280;5071;52.360;13.134;2023-03-02T15:23:19;101816.16;;;3.85;77.99
10064;BME280;5071;52.360;13.134;2023-03-02T15:28:32;101817.41;;;3.71;78.56
10064;BME280;5071;52.360;13.134;2023-03-02T15:33:34;101821.22;;;3.28;80.41
10064;BME280;5071;52.360;13.134;2023-03-02T15:38:36;101827.28;;;3.01;81.62
10064;BME280;5071;52.360;13.134;2023-03-02T15:43:39;101820.06;;;2.71;82.80
10064;BME280;5071;52.360;13.134;2023-03-02T15:48:44;101812.88;;;2.66;83.41
10064;BME280;5071;52.360;13.134;2023-03-02T15:53:55;101815.34;;;2.61;83.57
10064;BME280;5071;52.360;13.134;2023-03-02T15:58:58;101812.63;;;2.36;84.72
10064;BME280;5071;52.360;13.134;2023-03-02T16:04:00;101802.91;;;2.33;85.10
10064;BME280;5071;52.360;13.134;2023-03-02T16:09:03;101801.66;;;2.23;85.96
10064;BME280;5071;52.360;13.134;2023-03-02T16:14:07;101801.19;;;2.11;86.85
10064;BME280;5071;52.360;13.134;2023-03-02T16:19:11;101794.34;;;1.92;87.52
10064;BME280;5071;52.360;13.134;2023-03-02T16:24:14;101796.13;;;1.72;89.03
10064;BME280;5071;52.360;13.134;2023-03-02T16:29:21;101800.75;;;1.57;89.79
10064;BME280;5071;52.360;13.134;2023-03-02T16:34:24;101797.22;;;1.35;90.83
10064;BME280;5071;52.360;13.134;2023-03-02T16:39:33;101790.22;;;1.13;91.15
10064;BME280;5071;52.360;13.134;2023-03-02T16:44:45;101800.81;;;0.96;92.74
10064;BME280;5071;52.360;13.134;2023-03-02T16:49:53;101798.00;;;0.72;93.63
10064;BME280;5071;52.360;13.134;2023-03-02T16:54:55;101795.25;;;0.69;94.21
10064;BME280;5071;52.360;13.134;2023-03-02T16:59:59;101806.66;;;0.52;94.80
10064;BME280;5071;52.360;13.134;2023-03-02T17:05:02;101811.34;;;0.40;95.14
10064;BME280;5071;52.360;13.134;2023-03-02T17:10:05;101818.88;;;0.33;96.08
10064;BME280;5071;52.360;13.134;2023-03-02T17:15:09;101826.19;;;0.41;97.16
10064;BME280;5071;52.360;13.134;2023-03-02T17:20:16;101821.91;;;0.43;96.86
10064;BME280;5071;52.360;13.134;2023-03-02T17:25:18;101834.44;;;0.50;96.85
10064;BME280;5071;52.360;13.134;2023-03-02T17:30:22;101842.47;;;0.54;96.90
10064;BME280;5071;52.360;13.134;2023-03-02T17:35:24;101842.88;;;0.44;97.04
10064;BME280;5071;52.360;13.134;2023-03-02T17:40:27;101847.31;;;0.45;97.42
10064;BME280;5071;52.360;13.134;2023-03-02T17:45:33;101853.50;;;0.47;97.15
10064;BME280;5071;52.360;13.134;2023-03-02T17:50:37;101845.78;;;0.50;97.13
10064;BME280;5071;52.360;13.134;2023-03-02T17:55:40;101846.88;;;0.36;97.25
10064;BME280;5071;52.360;13.134;2023-03-02T18:00:43;101851.84;;;0.31;97.50
10064;BME280;5071;52.360;13.134;2023-03-02T18:05:47;101854.63;;;0.34;97.73
10064;BME280;5071;52.360;13.134;2023-03-02T18:10:49;101856.13;;;0.29;97.92
10064;BME280;5071;52.360;13.134;2023-03-02T18:15:53;101859.69;;;0.31;97.80
10064;BME280;5071;52.360;13.134;2023-03-02T18:20:58;101866.28;;;0.23;98.10
10064;BME280;5071;52.360;13.134;2023-03-02T18:26:00;101866.41;;;0.26;98.51
10064;BME280;5071;52.360;13.134;2023-03-02T18:31:05;101871.63;;;0.26;97.59
10064;BME280;5071;52.360;13.134;2023-03-02T18:36:08;101867.91;;;0.21;98.37
10064;BME280;5071;52.360;13.134;2023-03-02T18:41:11;101858.22;;;0.01;99.19
10064;BME280;5071;52.360;13.134;2023-03-02T18:46:21;101873.38;;;0.08;98.91
10064;BME280;5071;52.360;13.134;2023-03-02T18:51:23;101859.84;;;0.16;99.44
10064;BME280;5071;52.360;13.134;2023-03-02T18:56:26;101873.38;;;0.08;99.01
10064;BME280;5071;52.360;13.134;2023-03-02T19:01:30;101871.78;;;-0.07;99.33
10064;BME280;5071;52.360;13.134;2023-03-02T19:06:32;101873.72;;;-0.03;99.33
10064;BME280;5071;52.360;13.134;2023-03-02T19:11:34;101867.72;;;-0.02;99.58
10064;BME280;5071;52.360;13.134;2023-03-02T19:16:38;101878.19;;;-0.18;100.00
10064;BME280;5071;52.360;13.134;2023-03-02T19:21:40;101863.91;;;-0.26;100.00
10064;BME280;5071;52.360;13.134;2023-03-02T19:26:43;101875.59;;;-0.18;100.00
10064;BME280;5071;52.360;13.134;2023-03-02T19:31:49;101874.25;;;-0.10;100.00
10064;BME280;5071;52.360;13.134;2023-03-02T19:36:51;101873.44;;;-0.09;100.00
10064;BME280;5071;52.360;13.134;2023-03-02T19:41:53;101885.59;;;0.09;100.00
10064;BME280;5071;52.360;13.134;2023-03-02T19:46:57;101874.63;;;0.16;100.00
10064;BME280;5071;52.360;13.134;2023-03-02T19:51:59;101878.03;;;0.15;100.00
10064;BME280;5071;52.360;13.134;2023-03-02T19:57:01;101879.84;;;0.16;100.00
10064;BME280;5071;52.360;13.134;2023-03-02T20:02:05;101879.41;;;0.07;100.00
10064;BME280;5071;52.360;13.134;2023-03-02T20:07:07;101888.19;;;0.09;100.00
10064;BME280;5071;52.360;13.134;2023-03-02T20:12:09;101883.19;;;-0.05;100.00
10064;BME280;5071;52.360;13.134;2023-03-02T20:17:12;101882.69;;;0.03;100.00
10064;BME280;5071;52.360;13.134;2023-03-02T20:22:15;101879.91;;;-0.18;100.00
10064;BME280;5071;52.360;13.134;2023-03-02T20:27:18;101885.06;;;-0.20;100.00
10064;BME280;5071;52.360;13.134;2023-03-02T20:32:22;101885.47;;;-0.29;100.00
10064;BME280;5071;52.360;13.134;2023-03-02T20:37:24;101888.97;;;-0.28;100.00
10064;BME280;5071;52.360;13.134;2023-03-02T20:42:27;101893.78;;;-0.20;100.00
10064;BME280;5071;52.360;13.134;2023-03-02T20:47:31;101907.28;;;-0.10;100.00
10064;BME280;5071;52.360;13.134;2023-03-02T20:52:33;101893.47;;;-0.08;100.00
10064;BME280;5071;52.360;13.134;2023-03-02T20:57:35;101902.44;;;-0.03;100.00
10064;BME280;5071;52.360;13.134;2023-03-02T21:02:38;101908.69;;;-0.17;100.00
10064;BME280;5071;52.360;13.134;2023-03-02T21:07:41;101894.78;;;-0.34;100.00
10064;BME280;5071;52.360;13.134;2023-03-02T21:12:43;101894.72;;;-0.35;100.00
10064;BME280;5071;52.360;13.134;2023-03-02T21:17:47;101903.38;;;-0.36;100.00
10064;BME280;5071;52.360;13.134;2023-03-02T21:22:49;101905.63;;;-0.26;100.00
10064;BME280;5071;52.360;13.134;2023-03-02T21:27:51;101896.75;;;-0.30;100.00
10064;BME280;5071;52.360;13.134;2023-03-02T21:32:55;101900.47;;;-0.25;100.00
10064;BME280;5071;52.360;13.134;2023-03-02T21:37:58;101906.84;;;-0.36;100.00
10064;BME280;5071;52.360;13.134;2023-03-02T21:43:01;101892.94;;;-0.36;100.00
10064;BME280;5071;52.360;13.134;2023-03-02T21:48:05;101895.94;;;-0.45;100.00
10064;BME280;5071;52.360;13.134;2023-03-02T21:53:08;101906.16;;;-0.50;100.00
10064;BME280;5071;52.360;13.134;2023-03-02T21:58:10;101904.22;;;-0.54;100.00
10064;BME280;5071;52.360;13.134;2023-03-02T22:03:14;101896.72;;;-0.64;100.00
10064;BME280;5071;52.360;13.134;2023-03-02T22:08:17;101903.34;;;-0.71;100.00
10064;BME280;5071;52.360;13.134;2023-03-02T22:13:21;101891.50;;;-0.64;100.00
10064;BME280;5071;52.360;13.134;2023-03-02T22:18:26;101887.72;;;-0.71;100.00
10064;BME280;5071;52.360;13.134;2023-03-02T22:23:28;101882.41;;;-0.72;100.00
10064;BME280;5071;52.360;13.134;2023-03-02T22:28:32;101879.72;;;-0.74;100.00
10064;BME280;5071;52.360;13.134;2023-03-02T22:33:36;101872.47;;;-0.80;100.00
10064;BME280;5071;52.360;13.134;2023-03-02T22:38:38;101878.66;;;-0.77;100.00
10064;BME280;5071;52.360;13.134;2023-03-02T22:43:41;101875.00;;;-0.81;100.00
10064;BME280;5071;52.360;13.134;2023-03-02T22:48:46;101877.69;;;-0.80;100.00
10064;BME280;5071;52.360;13.134;2023-03-02T22:53:51;101873.44;;;-0.94;100.00
10064;BME280;5071;52.360;13.134;2023-03-02T22:58:54;101869.38;;;-0.89;100.00
10064;BME280;5071;52.360;13.134;2023-03-02T23:04:07;101854.22;;;-0.80;100.00
10064;BME280;5071;52.360;13.134;2023-03-02T23:09:15;101845.16;;;-0.70;100.00
10064;BME280;5071;52.360;13.134;2023-03-02T23:14:23;101837.25;;;-0.71;100.00
10064;BME280;5071;52.360;13.134;2023-03-02T23:19:29;101853.56;;;-0.75;100.00
10064;BME280;5071;52.360;13.134;2023-03-02T23:24:31;101838.28;;;-0.86;100.00
10064;BME280;5071;52.360;13.134;2023-03-02T23:29:33;101834.59;;;-0.73;100.00
10064;BME280;5071;52.360;13.134;2023-03-02T23:34:37;101825.28;;;-0.68;100.00
10064;BME280;5071;52.360;13.134;2023-03-02T23:39:39;101809.16;;;-0.77;100.00
10064;BME280;5071;52.360;13.134;2023-03-02T23:44:41;101807.13;;;-0.83;100.00
10064;BME280;5071;52.360;13.134;2023-03-02T23:49:45;101808.31;;;-0.94;100.00
10064;BME280;5071;52.360;13.134;2023-03-02T23:54:47;101815.63;;;-0.87;100.00
10064;BME280;5071;52.360;13.134;2023-03-02T23:59:52;101823.78;;;-0.97;100.00
